Adamstown, Maryland
Current Conditions -  °F | °C
As of 10:15 PM on Sunday 21 Dec 2014 (Local Time) from KFDK Reporting Station
Clear Clear  
Wind Chill: 28°   Ceiling: Unl
Heat Index: 28°   Visibility: 7mi
Dew Point: 21°   Wind: 3mph
Humidity: 74%   Direction: 20°NNE
Pressure: 30.37"   Gusts: NA
Location:  39.31°N, 77.47°W
Report Text: KFDK 220315Z AUTO 02003KT 7SM CLR M02/M06 A3037 RMK AO2
Loading
Personal Weather Stations






























Interactive Weather Map New forecast layout! Learn more

10-Day Weather Forecast

Advertisements
Track Severe Weather on mobile